createdAt,value
2022-09-04T00:00:10.611Z,18.06
2022-09-04T00:03:10.493Z,17.94
2022-09-04T00:06:02.965Z,17.94
2022-09-04T00:09:06.472Z,17.93
2022-09-04T00:12:02.013Z,17.98
2022-09-04T00:15:13.620Z,17.92
2022-09-04T00:18:09.843Z,17.94
2022-09-04T00:20:59.681Z,17.93
2022-09-04T00:24:02.390Z,17.90
2022-09-04T00:27:17.025Z,17.96
2022-09-04T00:30:08.553Z,17.99
2022-09-04T00:33:18.077Z,17.92
2022-09-04T00:36:06.110Z,17.94
2022-09-04T00:39:13.737Z,17.92
2022-09-04T00:42:37.261Z,17.99
2022-09-04T00:45:27.676Z,17.97
2022-09-04T00:48:37.013Z,17.94
2022-09-04T00:51:24.265Z,17.90
2022-09-04T00:54:21.834Z,17.92
2022-09-04T00:57:27.766Z,17.91
2022-09-04T01:00:18.688Z,17.88
2022-09-04T01:03:34.886Z,17.82
2022-09-04T01:06:46.774Z,17.81
2022-09-04T01:09:55.732Z,17.81
2022-09-04T01:13:04.832Z,17.83
2022-09-04T01:16:32.856Z,17.75
2022-09-04T01:19:47.481Z,17.76
2022-09-04T01:22:58.718Z,17.80
2022-09-04T01:25:56.552Z,17.69
2022-09-04T01:29:07.838Z,17.72
2022-09-04T01:32:01.678Z,17.72
2022-09-04T01:35:31.321Z,17.73
2022-09-04T01:38:51.240Z,17.74
2022-09-04T01:41:45.530Z,17.74
2022-09-04T01:44:34.073Z,17.68
2022-09-04T01:47:31.706Z,17.67
2022-09-04T01:50:26.531Z,17.69
2022-09-04T01:53:43.695Z,17.62
2022-09-04T01:57:19.030Z,17.61
2022-09-04T02:00:16.360Z,17.63
2022-09-04T02:03:14.461Z,17.58
2022-09-04T02:06:10.772Z,17.61
2022-09-04T02:09:34.224Z,17.61
2022-09-04T02:12:50.911Z,17.59
2022-09-04T02:15:58.606Z,17.55
2022-09-04T02:19:15.464Z,17.51
2022-09-04T02:22:28.613Z,17.53
2022-09-04T02:25:25.959Z,17.56
2022-09-04T02:28:48.568Z,17.55
2022-09-04T02:31:38.579Z,17.56
2022-09-04T02:34:51.778Z,17.52
2022-09-04T02:37:46.873Z,17.49
2022-09-04T02:40:51.681Z,17.50
2022-09-04T02:44:07.745Z,17.44
2022-09-04T02:47:23.840Z,17.41
2022-09-04T02:50:26.417Z,17.41
2022-09-04T02:53:41.817Z,17.35
2022-09-04T02:57:07.770Z,17.32
2022-09-04T03:00:28.717Z,17.31
2022-09-04T03:03:21.246Z,17.24
2022-09-04T03:06:14.003Z,17.21
2022-09-04T03:09:12.126Z,17.18
2022-09-04T03:12:14.786Z,17.23
2022-09-04T03:15:11.637Z,17.23
2022-09-04T03:18:39.518Z,17.23
2022-09-04T03:21:34.386Z,17.20
2022-09-04T03:24:57.694Z,17.21
2022-09-04T03:27:44.952Z,17.19
2022-09-04T03:30:36.040Z,17.18
2022-09-04T03:33:51.522Z,17.11
2022-09-04T03:37:04.742Z,17.12
2022-09-04T03:40:09.867Z,17.16
2022-09-04T03:43:30.945Z,17.12
2022-09-04T03:46:36.364Z,17.10
2022-09-04T03:49:42.701Z,17.06
2022-09-04T03:52:54.216Z,17.09
2022-09-04T03:56:00.865Z,17.12
2022-09-04T03:59:03.033Z,17.07
2022-09-04T04:01:55.858Z,16.99
2022-09-04T04:05:17.104Z,17.02
2022-09-04T04:08:11.418Z,17.01
2022-09-04T04:11:18.974Z,17.02
2022-09-04T04:14:18.201Z,16.99
2022-09-04T04:17:43.001Z,17.04
2022-09-04T04:20:52.328Z,17.01
2022-09-04T04:23:59.087Z,16.94
2022-09-04T04:27:18.085Z,16.95
2022-09-04T04:30:16.975Z,16.95
2022-09-04T04:33:11.681Z,16.92
2022-09-04T04:36:13.081Z,16.84
2022-09-04T04:39:10.033Z,16.82
2022-09-04T04:42:15.232Z,16.82
2022-09-04T04:45:46.777Z,16.81
2022-09-04T04:49:28.466Z,16.79
2022-09-04T04:52:18.470Z,16.72
2022-09-04T04:55:31.560Z,16.75
2022-09-04T04:58:25.041Z,16.73
2022-09-04T05:01:28.422Z,16.71
2022-09-04T05:04:53.176Z,16.80
2022-09-04T05:07:43.173Z,16.86
2022-09-04T05:10:46.941Z,16.80
2022-09-04T05:13:55.744Z,16.82
2022-09-04T05:17:20.541Z,16.84
2022-09-04T05:20:17.010Z,16.88
2022-09-04T05:23:29.421Z,16.92
2022-09-04T05:26:25.809Z,16.96
2022-09-04T05:29:28.158Z,16.98
2022-09-04T05:32:29.633Z,17.03
2022-09-04T05:35:31.828Z,17.03
2022-09-04T05:38:52.359Z,17.03
2022-09-04T05:42:08.900Z,17.05
2022-09-04T05:45:24.646Z,17.09
2022-09-04T05:48:56.596Z,17.11
2022-09-04T05:52:07.303Z,17.11
2022-09-04T05:55:16.225Z,17.21
2022-09-04T05:58:17.532Z,17.31
2022-09-04T06:02:10.775Z,17.37
2022-09-04T06:05:19.032Z,17.35
2022-09-04T06:08:16.753Z,17.41
2022-09-04T06:11:51.446Z,17.42
2022-09-04T06:15:00.187Z,17.52
2022-09-04T06:18:02.273Z,17.60
2022-09-04T06:21:01.496Z,17.68
2022-09-04T06:24:24.473Z,17.70
2022-09-04T06:27:20.825Z,17.75
2022-09-04T06:30:16.344Z,17.76
2022-09-04T06:33:42.061Z,17.79
2022-09-04T06:36:46.281Z,17.84
2022-09-04T06:39:59.827Z,17.93
2022-09-04T06:43:19.500Z,18.00
2022-09-04T06:46:27.141Z,17.99
2022-09-04T06:49:24.106Z,18.01
2022-09-04T06:52:21.129Z,18.03
2022-09-04T06:55:13.575Z,18.05
2022-09-04T06:58:09.971Z,18.10
2022-09-04T07:01:08.673Z,18.16
2022-09-04T07:04:53.453Z,18.20
2022-09-04T07:08:02.960Z,18.27
2022-09-04T07:11:18.795Z,18.32
2022-09-04T07:14:33.881Z,18.37
2022-09-04T07:17:40.227Z,18.41
2022-09-04T07:20:56.864Z,18.46
2022-09-04T07:24:07.422Z,18.50
2022-09-04T07:27:28.048Z,18.53
2022-09-04T07:30:17.377Z,18.55
2022-09-04T07:33:12.486Z,18.60
2022-09-04T07:36:13.318Z,18.64
2022-09-04T07:39:25.147Z,18.74
2022-09-04T07:42:20.185Z,18.80
2022-09-04T07:45:22.426Z,18.82
2022-09-04T07:48:32.302Z,18.85
2022-09-04T07:51:26.338Z,18.87
2022-09-04T07:54:35.548Z,18.90
2022-09-04T07:57:44.505Z,18.96
2022-09-04T08:01:01.849Z,19.08
2022-09-04T08:04:04.738Z,19.11
2022-09-04T08:06:59.209Z,19.17
2022-09-04T08:10:22.697Z,19.23
2022-09-04T08:13:26.629Z,19.29
2022-09-04T08:16:41.554Z,19.34
2022-09-04T08:19:48.708Z,19.37
2022-09-04T08:23:04.232Z,19.44
2022-09-04T08:25:54.116Z,19.43
2022-09-04T08:29:08.869Z,19.50
2022-09-04T08:32:38.069Z,19.58
2022-09-04T08:35:56.783Z,19.66
2022-09-04T08:39:21.681Z,19.74
2022-09-04T08:42:39.562Z,19.81
2022-09-04T08:45:48.283Z,19.93
2022-09-04T08:48:48.770Z,20.01
2022-09-04T08:52:18.589Z,20.06
2022-09-04T08:55:33.132Z,20.11
2022-09-04T08:58:38.486Z,20.13
2022-09-04T09:01:31.732Z,20.17
2022-09-04T09:05:00.053Z,20.24
2022-09-04T09:07:58.352Z,20.39
2022-09-04T09:10:54.688Z,20.45
2022-09-04T09:13:47.696Z,20.46
2022-09-04T09:16:48.281Z,20.52
2022-09-04T09:19:59.907Z,20.56
2022-09-04T09:23:19.272Z,20.67
2022-09-04T09:26:12.320Z,20.74
2022-09-04T09:29:24.617Z,20.78
2022-09-04T09:32:59.255Z,20.82
2022-09-04T09:36:16.077Z,20.89
2022-09-04T09:39:05.933Z,20.89
2022-09-04T09:42:25.061Z,20.91
2022-09-04T09:45:35.697Z,20.98
2022-09-04T09:48:57.488Z,21.01
2022-09-04T09:52:09.621Z,21.10
2022-09-04T09:55:45.685Z,21.12
2022-09-04T09:58:58.515Z,21.10
2022-09-04T10:02:40.144Z,21.13
2022-09-04T10:05:55.479Z,21.24
2022-09-04T10:09:24.299Z,21.26
2022-09-04T10:12:50.201Z,21.35
2022-09-04T10:16:14.812Z,21.52
2022-09-04T10:19:31.084Z,21.57
2022-09-04T10:22:33.429Z,21.60
2022-09-04T10:25:49.942Z,21.74
2022-09-04T10:29:04.078Z,21.81
2022-09-04T10:31:54.323Z,21.89
2022-09-04T10:34:56.768Z,21.92
2022-09-04T10:38:01.425Z,21.97
2022-09-04T10:41:08.889Z,22.02
2022-09-04T10:44:26.409Z,22.01
2022-09-04T10:47:41.266Z,22.16
2022-09-04T10:50:58.044Z,22.28
2022-09-04T10:54:07.810Z,22.35
2022-09-04T10:57:18.370Z,22.39
2022-09-04T11:00:20.286Z,22.43
2022-09-04T11:03:44.294Z,22.44
2022-09-04T11:06:49.258Z,22.47
2022-09-04T11:10:04.291Z,22.59
2022-09-04T11:13:30.001Z,22.73
2022-09-04T11:16:17.218Z,22.72
2022-09-04T11:19:10.358Z,22.67
2022-09-04T11:22:20.306Z,22.77
2022-09-04T11:25:19.426Z,22.88
2022-09-04T11:28:07.026Z,22.85
2022-09-04T11:31:22.084Z,22.84
2022-09-04T11:34:41.904Z,22.89
2022-09-04T11:38:03.349Z,22.98
2022-09-04T11:41:22.303Z,23.13
2022-09-04T11:44:25.189Z,23.19
2022-09-04T11:47:30.357Z,23.31
2022-09-04T11:50:36.680Z,23.63
2022-09-04T11:53:40.288Z,23.75
2022-09-04T11:56:50.669Z,23.82
2022-09-04T11:59:59.696Z,23.95
2022-09-04T12:03:10.623Z,24.16
2022-09-04T12:06:09.989Z,24.28
2022-09-04T12:09:00.201Z,24.43
2022-09-04T12:11:50.863Z,24.60
2022-09-04T12:14:56.109Z,24.75
2022-09-04T12:17:58.149Z,24.72
2022-09-04T12:21:01.851Z,25.01
2022-09-04T12:24:05.990Z,25.06
2022-09-04T12:26:56.002Z,25.09
2022-09-04T12:29:52.450Z,25.12
2022-09-04T12:32:42.741Z,25.18
2022-09-04T12:36:05.904Z,25.21
2022-09-04T12:39:11.619Z,25.23
2022-09-04T12:42:24.168Z,25.27
2022-09-04T12:45:17.292Z,25.49
2022-09-04T12:48:27.673Z,25.60
2022-09-04T12:51:21.168Z,25.61
2022-09-04T12:54:34.350Z,25.73
2022-09-04T12:57:49.789Z,25.71
2022-09-04T13:01:08.408Z,25.72
2022-09-04T13:04:05.722Z,25.92
2022-09-04T13:07:15.827Z,26.08
2022-09-04T13:10:24.799Z,26.23
2022-09-04T13:13:30.481Z,26.35
2022-09-04T13:16:38.866Z,26.44
2022-09-04T13:19:45.936Z,26.59
2022-09-04T13:22:55.031Z,26.79
2022-09-04T13:25:58.537Z,27.01
2022-09-04T13:28:54.763Z,27.04
2022-09-04T13:31:45.027Z,27.05
2022-09-04T13:34:58.545Z,26.93
2022-09-04T13:37:54.691Z,26.93
2022-09-04T13:41:12.391Z,27.02
2022-09-04T13:44:00.586Z,26.95
2022-09-04T13:46:54.677Z,26.94
2022-09-04T13:49:48.151Z,27.07
2022-09-04T13:52:49.973Z,27.04
2022-09-04T13:55:49.981Z,26.86
2022-09-04T13:58:44.272Z,26.72
2022-09-04T14:01:46.018Z,26.60
2022-09-04T14:04:48.741Z,26.46
2022-09-04T14:07:42.835Z,26.41
2022-09-04T14:11:05.896Z,26.62
2022-09-04T14:14:11.361Z,26.77
2022-09-04T14:16:59.978Z,26.85
2022-09-04T14:20:22.456Z,27.01
2022-09-04T14:23:38.096Z,27.05
2022-09-04T14:26:35.690Z,26.96
2022-09-04T14:29:38.900Z,26.97
2022-09-04T14:32:49.362Z,27.05
2022-09-04T14:35:50.742Z,27.02
2022-09-04T14:39:04.716Z,27.04
2022-09-04T14:42:03.719Z,27.09
2022-09-04T14:45:18.109Z,27.01
2022-09-04T14:48:12.115Z,27.00
2022-09-04T14:51:13.368Z,26.97
2022-09-04T14:54:02.010Z,26.84
2022-09-04T14:56:54.166Z,26.60
2022-09-04T14:59:51.530Z,26.47
2022-09-04T15:03:08.656Z,26.61
2022-09-04T15:05:59.271Z,26.74
2022-09-04T15:08:50.545Z,26.89
2022-09-04T15:11:37.900Z,26.84
2022-09-04T15:14:32.816Z,26.71
2022-09-04T15:17:29.837Z,26.60
2022-09-04T15:20:27.751Z,26.43
2022-09-04T15:23:27.461Z,26.35
2022-09-04T15:26:24.802Z,26.26
2022-09-04T15:29:20.834Z,26.17
2022-09-04T15:32:13.934Z,26.10
2022-09-04T15:35:15.625Z,26.08
2022-09-04T15:38:21.203Z,26.04
2022-09-04T15:41:19.302Z,25.98
2022-09-04T15:44:21.592Z,25.97
2022-09-04T15:47:15.853Z,25.95
2022-09-04T15:50:22.312Z,25.95
2022-09-04T15:53:25.064Z,25.87
2022-09-04T15:56:17.144Z,25.90
2022-09-04T15:59:15.933Z,25.87
2022-09-04T16:02:25.027Z,25.90
2022-09-04T16:05:25.477Z,25.85
2022-09-04T16:08:26.123Z,25.78
2022-09-04T16:11:29.237Z,25.76
2022-09-04T16:14:22.922Z,25.74
2022-09-04T16:17:20.097Z,25.71
2022-09-04T16:20:36.091Z,25.73
2022-09-04T16:23:32.056Z,25.70
2022-09-04T16:26:27.050Z,25.69
2022-09-04T16:29:29.715Z,25.69
2022-09-04T16:32:22.186Z,25.72
2022-09-04T16:35:19.349Z,25.75
2022-09-04T16:38:14.746Z,25.73
2022-09-04T16:41:25.490Z,25.71
2022-09-04T16:44:25.848Z,25.67
2022-09-04T16:47:26.666Z,25.62
2022-09-04T16:50:37.620Z,25.69
2022-09-04T16:53:41.706Z,25.68
2022-09-04T16:56:40.566Z,25.67
2022-09-04T16:59:35.599Z,25.65
2022-09-04T17:02:43.907Z,25.58
2022-09-04T17:05:50.773Z,25.56
2022-09-04T17:09:21.561Z,25.53
2022-09-04T17:12:32.690Z,25.46
2022-09-04T17:15:34.516Z,25.43
2022-09-04T17:18:24.327Z,25.38
2022-09-04T17:27:26.012Z,25.24
2022-09-04T17:29:07.543Z,25.10
2022-09-04T17:29:08.422Z,24.96
2022-09-04T17:31:38.506Z,24.98
2022-09-04T17:40:36.664Z,24.94
2022-09-04T17:40:54.444Z,24.88
2022-09-04T17:41:31.423Z,24.81
2022-09-04T17:44:54.230Z,24.77
2022-09-04T17:47:42.889Z,24.75
2022-09-04T17:50:30.450Z,24.70
2022-09-04T17:53:33.469Z,24.65
2022-09-04T17:56:31.576Z,24.58
2022-09-04T17:59:28.912Z,24.52
2022-09-04T18:02:25.825Z,24.51
2022-09-04T18:05:25.461Z,24.45
2022-09-04T18:08:32.631Z,24.40
2022-09-04T18:11:27.108Z,24.33
2022-09-04T18:14:23.012Z,24.27
2022-09-04T18:17:23.400Z,24.21
2022-09-04T18:20:38.236Z,24.15
2022-09-04T18:23:51.349Z,24.06
2022-09-04T18:26:45.469Z,23.96
2022-09-04T18:32:43.196Z,23.88
2022-09-04T18:37:20.411Z,23.73
2022-09-04T18:37:24.928Z,23.81
2022-09-04T18:40:00.189Z,23.61
2022-09-04T18:50:23.364Z,23.58
2022-09-04T18:50:32.332Z,23.47
2022-09-04T18:50:41.122Z,23.51
2022-09-04T18:52:42.438Z,23.41
2022-09-04T18:55:37.012Z,23.37
2022-09-04T18:58:37.975Z,23.32
2022-09-04T19:01:38.469Z,23.26
2022-09-04T19:04:41.430Z,23.20
2022-09-04T19:07:49.128Z,23.13
2022-09-04T19:10:49.809Z,23.06
2022-09-04T19:13:48.365Z,23.03
2022-09-04T19:16:48.994Z,23.00
2022-09-04T19:19:54.080Z,22.97
2022-09-04T19:22:47.920Z,22.89
2022-09-04T19:25:44.186Z,22.82
2022-09-04T19:28:55.919Z,22.77
2022-09-04T19:31:59.046Z,22.75
2022-09-04T19:35:11.962Z,22.77
2022-09-04T19:42:47.796Z,22.78
2022-09-04T19:45:59.686Z,22.76
2022-09-04T19:46:09.323Z,22.76
2022-09-04T19:48:20.710Z,22.72
2022-09-04T19:53:24.518Z,22.67
2022-09-04T19:54:33.843Z,22.64
2022-09-04T19:57:34.504Z,22.59
2022-09-04T20:00:43.100Z,22.56
2022-09-04T20:03:39.569Z,22.37
2022-09-04T20:06:36.328Z,22.45
2022-09-04T20:09:37.258Z,22.40
2022-09-04T20:12:35.438Z,22.36
2022-09-04T20:15:31.603Z,22.14
2022-09-04T20:18:39.468Z,22.18
2022-09-04T20:21:50.235Z,22.18
2022-09-04T20:25:01.289Z,22.16
2022-09-04T20:28:14.518Z,22.12
2022-09-04T20:31:36.138Z,22.05
2022-09-04T20:34:27.201Z,22.02
2022-09-04T20:37:53.726Z,21.98
2022-09-04T20:40:44.277Z,21.93
2022-09-04T20:44:00.529Z,21.94
2022-09-04T20:52:43.302Z,21.90
2022-09-04T20:53:00.035Z,21.89
2022-09-04T20:54:07.175Z,21.86
2022-09-04T21:00:23.606Z,21.82
2022-09-04T21:03:10.002Z,21.79
2022-09-04T21:04:02.978Z,21.75
2022-09-04T21:07:24.989Z,21.71
2022-09-04T21:10:37.092Z,21.68
2022-09-04T21:14:03.551Z,21.65
2022-09-04T21:17:33.421Z,21.60
2022-09-04T21:20:19.264Z,21.48
2022-09-04T21:23:07.453Z,21.44
2022-09-04T21:25:57.731Z,21.45
2022-09-04T21:29:10.844Z,21.45
2022-09-04T21:32:13.334Z,21.43
2022-09-04T21:35:13.935Z,21.40
2022-09-04T21:38:39.389Z,21.33
2022-09-04T21:42:17.156Z,21.26
2022-09-04T21:45:16.630Z,21.23
2022-09-04T21:48:43.564Z,21.19
2022-09-04T21:51:36.502Z,21.19
2022-09-04T21:59:49.308Z,21.16
2022-09-04T22:02:36.349Z,21.13
2022-09-04T22:02:39.336Z,21.11
2022-09-04T22:05:09.601Z,21.09
2022-09-04T22:13:26.542Z,21.02
2022-09-04T22:13:38.855Z,20.96
2022-09-04T22:14:46.673Z,20.93
2022-09-04T22:18:09.867Z,20.95
2022-09-04T22:21:40.208Z,20.91
2022-09-04T22:25:06.174Z,20.87
2022-09-04T22:28:17.022Z,20.85
2022-09-04T22:31:24.572Z,20.71
2022-09-04T22:34:46.574Z,20.70
2022-09-04T22:37:48.958Z,20.69
2022-09-04T22:40:56.490Z,20.63
2022-09-04T22:44:12.957Z,20.60
2022-09-04T22:47:25.616Z,20.52
2022-09-04T22:50:18.788Z,20.51
2022-09-04T22:53:27.018Z,20.37
2022-09-04T22:56:42.900Z,20.31
2022-09-04T22:59:42.253Z,20.32
2022-09-04T23:08:29.122Z,20.39
2022-09-04T23:13:46.234Z,20.45
2022-09-04T23:13:46.603Z,20.43
2022-09-04T23:16:41.493Z,20.40
2022-09-04T23:26:35.091Z,20.40
2022-09-04T23:26:43.217Z,20.33
2022-09-04T23:27:00.235Z,20.22
2022-09-04T23:30:06.025Z,20.21
2022-09-04T23:33:10.705Z,20.30
2022-09-04T23:36:22.657Z,20.29
2022-09-04T23:40:00.954Z,20.27
2022-09-04T23:43:12.828Z,20.26
2022-09-04T23:46:09.350Z,20.29
2022-09-04T23:49:10.996Z,20.36
2022-09-04T23:52:08.030Z,20.37
2022-09-04T23:55:17.607Z,20.31
2022-09-04T23:58:51.810Z,20.20
